Orbital elements of CZ-4B DEB
| Launched | 13 October 1999 |
| Flight ended | – |
| Launch site | Taiyuan Space Center, PRC |
| Owner | People's Republic of China |
| NORAD ID | 35322 |
| Date fetched |
Epoch osculation |
Inc. [°] |
Ecc. | RA asc node [hr] |
Arg Peri. [°] |
Mean anom [°] |
Mean motion [rev/day] |
Abs. mag |
| Date fetched |
Epoch osculation |
Inc. [°] |
Ecc. | RA asc node [hr] |
Arg Peri. [°] |
Mean anom [°] |
Mean motion [rev/day] |
Abs. mag |
| 2026 May 03 17:57 | 2026 Apr 30 08:44:19 | 99.0864 | 0.01956 | 11.2060 | 227.5627 | 130.8864 | 14.14550 | – |
| 2026 May 02 17:57 | 2026 Apr 30 08:44:19 | 99.0864 | 0.01956 | 11.2060 | 227.5627 | 130.8864 | 14.14550 | – |
| 2026 May 01 17:56 | 2026 Apr 30 08:44:19 | 99.0864 | 0.01956 | 11.2060 | 227.5627 | 130.8864 | 14.14550 | – |
| 2026 Apr 30 17:56 | 2026 Apr 30 08:44:19 | 99.0864 | 0.01956 | 11.2060 | 227.5627 | 130.8864 | 14.14550 | – |
| 2026 Apr 29 17:57 | 2026 Apr 24 08:26:28 | 99.0870 | 0.01953 | 10.7978 | 244.6113 | 130.8864 | 14.14550 | – |
| 2026 Apr 28 17:56 | 2026 Apr 24 08:26:28 | 99.0870 | 0.01953 | 10.7978 | 244.6113 | 130.8864 | 14.14550 | – |
| 2026 Apr 27 17:58 | 2026 Apr 24 08:26:28 | 99.0870 | 0.01953 | 10.7978 | 244.6113 | 130.8864 | 14.14550 | – |
| 2026 Apr 26 17:58 | 2026 Apr 24 08:26:28 | 99.0870 | 0.01953 | 10.7978 | 244.6113 | 130.8864 | 14.14550 | – |
| 2026 Apr 25 17:58 | 2026 Apr 24 08:26:28 | 99.0870 | 0.01953 | 10.7978 | 244.6113 | 130.8864 | 14.14550 | – |
| 2026 Apr 24 17:59 | 2026 Apr 24 08:26:28 | 99.0870 | 0.01953 | 10.7978 | 244.6113 | 130.8864 | 14.14550 | – |
| 2026 Apr 23 17:57 | 2026 Apr 18 09:50:30 | 99.0883 | 0.01952 | 10.3943 | 261.4897 | 130.8864 | 14.14550 | – |
| 2026 Apr 22 17:57 | 2026 Apr 18 09:50:30 | 99.0883 | 0.01952 | 10.3943 | 261.4897 | 130.8864 | 14.14550 | – |
| 2026 Apr 21 17:57 | 2026 Apr 18 09:50:30 | 99.0883 | 0.01952 | 10.3943 | 261.4897 | 130.8864 | 14.14550 | – |
| 2026 Apr 20 17:57 | 2026 Apr 18 09:50:30 | 99.0883 | 0.01952 | 10.3943 | 261.4897 | 130.8864 | 14.14550 | – |
| 2026 Apr 19 17:58 | 2026 Apr 18 09:50:30 | 99.0883 | 0.01952 | 10.3943 | 261.4897 | 130.8864 | 14.14550 | – |
| 2026 Apr 18 17:56 | 2026 Apr 11 09:46:42 | 99.0892 | 0.01951 | 9.9188 | 281.3876 | 130.8864 | 14.14550 | – |
| 2026 Apr 16 17:57 | 2026 Apr 11 09:46:42 | 99.0892 | 0.01951 | 9.9188 | 281.3876 | 130.8864 | 14.14550 | – |
| 2026 Apr 14 17:57 | 2026 Apr 11 09:46:42 | 99.0892 | 0.01951 | 9.9188 | 281.3876 | 130.8864 | 14.14550 | – |
| 2026 Apr 13 17:57 | 2026 Apr 11 09:46:42 | 99.0892 | 0.01951 | 9.9188 | 281.3876 | 130.8864 | 14.14550 | – |
| 2026 Apr 12 17:57 | 2026 Apr 06 21:07:55 | 99.0901 | 0.01951 | 9.6114 | 294.2477 | 130.8864 | 14.14550 | – |
| 2026 Apr 11 17:57 | 2026 Apr 06 21:07:55 | 99.0901 | 0.01951 | 9.6114 | 294.2477 | 130.8864 | 14.14550 | – |
| 2026 Apr 10 17:58 | 2026 Apr 06 21:07:55 | 99.0901 | 0.01951 | 9.6114 | 294.2477 | 130.8864 | 14.14550 | – |
| 2026 Apr 09 18:01 | 2026 Apr 06 21:07:55 | 99.0901 | 0.01951 | 9.6114 | 294.2477 | 130.8864 | 14.14550 | – |
| 2026 Apr 08 17:57 | 2026 Apr 06 21:07:55 | 99.0901 | 0.01951 | 9.6114 | 294.2477 | 130.8864 | 14.14550 | – |
| 2026 Apr 07 17:57 | 2026 Apr 01 08:43:09 | 99.0913 | 0.01953 | 9.2366 | 309.9132 | 130.8864 | 14.14550 | – |
| 2026 Apr 06 17:57 | 2026 Apr 01 08:43:09 | 99.0913 | 0.01953 | 9.2366 | 309.9132 | 130.8864 | 14.14550 | – |